Time;durP1;ratioP1;P1;durP2;ratioP2;P2;SDS_P1;SDS_P2;PMS_P1;PMS_P2;Temp;Humidity;BMP_temperature;BMP_pressure;BME280_temperature;BME280_humidity;BME280_pressure;Samples;Min_cycle;Max_cycle;Signal;HPM_P1;HPM_P2
2021/04/13 05:52:45;;;;;;;;;;;;;;;;;;5375388;23;20369;-69
2021/04/13 05:55:11;;;;;;;;;;;;;;;;;;4832798;29;19928;-70
2021/04/13 05:57:37;;;;;;;;;;;;;;;;;;4832270;29;20308;-65
2021/04/13 06:00:03;;;;;;;;;;;;;;;;;;4822595;29;19916;-67
2021/04/13 06:05:06;;;;;;;;;;;;;;;;;;4838442;29;19920;-66
2021/04/13 06:07:32;;;;;;;;;;;;;;;;;;4839127;29;20252;-64
2021/04/13 06:09:58;;;;;;;;;;;;;;;;;;4823385;29;19923;-68
2021/04/13 06:12:33;;;;;;;;;;;;;;;;;;4838965;29;19920;-67
2021/04/13 06:14:59;;;;;;;;;;;;;;;;;;4830746;29;20399;-65
2021/04/13 06:17:25;;;;;;;;;;;;;;;;;;4829945;29;19913;-67
2021/04/13 06:19:51;;;;;;;;;;;;;;;;;;4830949;29;19957;-69
2021/04/13 06:22:17;;;;;;;;;;;;;;;;;;4833305;29;19912;-68
2021/04/13 06:24:45;;;;;;;;;;;;;;;;;;4831367;29;20026;-67
2021/04/13 06:27:12;;;;;;;;;;;;;;;;;;4838474;29;19913;-73
2021/04/13 06:29:40;;;;;;;;;;;;;;;;;;4823614;29;20387;-68
2021/04/13 06:32:06;;;;;;;;;;;;;;;;;;4839727;29;20012;-67
2021/04/13 06:34:32;;;;;;;;;;;;;;;;;;4840218;29;19908;-67
2021/04/13 06:36:58;;;;;;;;;;;;;;;;;;4839790;29;19913;-64
2021/04/13 06:39:24;;;;;;;;;;;;;;;;;;4841016;29;20308;-66
2021/04/13 06:41:50;;;;;;;;;;;;;;;;;;4824417;29;19909;-67
2021/04/13 06:44:16;;;;;;;;;;;;;;;;;;4825653;29;20356;-66
2021/04/13 06:46:42;;;;;;;;;;;;;;;;;;4805378;29;19916;-71
2021/04/13 06:49:08;;;;;;;;;;;;;;;;;;4829229;29;20148;-68
2021/04/13 06:51:34;;;;;;;;;;;;;;;;;;4821564;29;19995;-66
2021/04/13 06:54:00;;;;;;;;;;;;;;;;;;4822311;29;20387;-66
2021/04/13 06:56:26;;;;;;;;;;;;;;;;;;4848536;29;19919;-64
2021/04/13 06:58:52;;;;;;;;;;;;;;;;;;4850286;29;19916;-70
2021/04/13 07:01:18;;;;;;;;;;;;;;;;;;4838652;29;19908;-69
2021/04/13 07:03:44;;;;;;;;;;;;;;;;;;4845273;29;20022;-66
2021/04/13 07:06:19;;;;;;;;;;;;;;;;;;4846703;29;20387;-65
2021/04/13 07:08:45;;;;;;;;;;;;;;;;;;4840656;29;19965;-68
2021/04/13 07:11:11;;;;;;;;;;;;;;;;;;4840288;29;19908;-68
2021/04/13 07:13:38;;;;;;;;;;;;;;;;;;4835795;29;20430;-72
2021/04/13 07:16:03;;;;;;;;;;;;;;;;;;4842090;29;20019;-69
2021/04/13 07:18:29;;;;;;;;;;;;;;;;;;4841102;29;20002;-71
2021/04/13 07:20:58;;;;;;;;;;;;;;;;;;4858423;29;19912;-66
2021/04/13 07:23:24;;;;;;;;;;;;;;;;;;4858421;29;19920;-65
2021/04/13 07:25:50;;;;;;;;;;;;;;;;;;4858839;29;20314;-75
2021/04/13 07:28:16;;;;;;;;;;;;;;;;;;4854828;29;19912;-65
2021/04/13 07:30:43;;;;;;;;;;;;;;;;;;4861079;29;19919;-65
2021/04/13 07:33:10;;;;;;;;;;;;;;;;;;4861896;29;19918;-71
2021/04/13 07:35:38;;;;;;;;;;;;;;;;;;4841090;29;19926;-63
2021/04/13 07:38:04;;;;;;;;;;;;;;;;;;4857742;29;19924;-67
2021/04/13 07:40:30;;;;;;;;;;;;;;;;;;4858562;29;19940;-65
2021/04/13 07:42:56;;;;;;;;;;;;;;;;;;4841717;29;20033;-69
2021/04/13 07:45:22;;;;;;;;;;;;;;;;;;4857029;29;19914;-65
2021/04/13 07:47:48;;;;;;;;;;;;;;;;;;4827511;29;19917;-71
2021/04/13 07:50:14;;;;;;;;;;;;;;;;;;4847819;29;20025;-67
2021/04/13 07:52:41;;;;;;;;;;;;;;;;;;4856342;29;19908;-67
2021/04/13 07:55:07;;;;;;;;;;;;;;;;;;4843772;29;19921;-67
2021/04/13 07:57:33;;;;;;;;;;;;;;;;;;4834852;29;19920;-65
2021/04/13 07:59:59;;;;;;;;;;;;;;;;;;4852412;29;20375;-67
2021/04/13 08:02:26;;;;;;;;;;;;;;;;;;4854910;29;19912;-65
2021/04/13 08:04:51;;;;;;;;;;;;;;;;;;4858020;29;19924;-69
2021/04/13 08:07:18;;;;;;;;;;;;;;;;;;4834024;29;19919;-69
2021/04/13 08:09:44;;;;;;;;;;;;;;;;;;4834180;29;19966;-69
2021/04/13 08:12:10;;;;;;;;;;;;;;;;;;4848666;29;19912;-70
2021/04/13 08:14:36;;;;;;;;;;;;;;;;;;4852446;29;19916;-68
2021/04/13 08:17:02;;;;;;;;;;;;;;;;;;4836691;29;19912;-70
2021/04/13 08:19:28;;;;;;;;;;;;;;;;;;4853428;29;20306;-70
2021/04/13 08:21:54;;;;;;;;;;;;;;;;;;4852996;29;19916;-65
2021/04/13 08:24:20;;;;;;;;;;;;;;;;;;4849537;29;20417;-65
2021/04/13 08:26:46;;;;;;;;;;;;;;;;;;4854884;29;19916;-68
2021/04/13 08:29:12;;;;;;;;;;;;;;;;;;4852989;29;19908;-67
2021/04/13 08:34:24;;;;;;;;;;;;;;;;;;4853486;29;19920;-68
2021/04/13 08:36:51;;;;;;;;;;;;;;;;;;4844052;29;19917;-68
2021/04/13 08:39:17;;;;;;;;;;;;;;;;;;4835076;29;19918;-63
2021/04/13 08:41:44;;;;;;;;;;;;;;;;;;4850499;29;20247;-65
2021/04/13 08:44:10;;;;;;;;;;;;;;;;;;4854461;29;19931;-63
2021/04/13 08:46:36;;;;;;;;;;;;;;;;;;4853137;29;19916;-63
2021/04/13 08:49:02;;;;;;;;;;;;;;;;;;4852656;29;19912;-64
2021/04/13 08:51:29;;;;;;;;;;;;;;;;;;4848345;29;19939;-65
2021/04/13 08:53:55;;;;;;;;;;;;;;;;;;4849677;29;20544;-65
2021/04/13 08:56:22;;;;;;;;;;;;;;;;;;4848572;29;20330;-65
2021/04/13 08:58:48;;;;;;;;;;;;;;;;;;4856072;29;19916;-65
2021/04/13 09:02:35;;;;;;;23.23;12.85;;;;;;;;;;5123014;27;20369;-65
2021/04/13 09:07:07;;;;;;;23.30;13.93;;;;;;;;;;5107250;27;20372;-64
2021/04/13 09:09:42;;;;;;;25.95;15.07;;;;;;;;;;5093467;28;20523;-65
2021/04/13 09:12:18;;;;;;;25.08;16.08;;;;;;;;;;5094609;28;20063;-66
2021/04/13 09:15:02;;;;;;;29.50;15.90;;;;;;;;;;5108076;28;20044;-65
2021/04/13 09:17:37;;;;;;;28.35;15.93;;;;;;;;;;5096897;28;20020;-64
2021/04/13 09:20:11;;;;;;;29.52;15.90;;;;;;;;;;5091322;28;20088;-64
2021/04/13 09:22:46;;;;;;;29.30;16.75;;;;;;;;;;5091857;28;20382;-67
2021/04/13 09:25:14;;;;;;;24.77;16.17;;;;;;;;;;5088432;28;20052;-64
2021/04/13 09:27:45;;;;;;;30.65;16.35;;;;;;;;;;5087248;28;20032;-65
2021/04/13 09:30:22;;;;;;;29.92;18.15;;;;;;;;;;5093946;28;20031;-65
2021/04/13 09:32:49;;;;;;;38.70;20.30;;;;;;;;;;5086045;28;20128;-67
2021/04/13 09:35:35;;;;;;;32.60;17.95;;;;;;;;;;5089381;28;20109;-67
2021/04/13 09:38:27;;;;;;;32.35;17.30;;;;;;;;;;5094612;28;20024;-64
2021/04/13 09:41:12;;;;;;;36.97;17.30;;;;;;;;;;5090899;28;20024;-64
2021/04/13 09:43:38;;;;;;;39.33;18.77;;;;;;;;;;5088298;28;20025;-67
2021/04/13 09:46:16;;;;;;;36.03;18.90;;;;;;;;;;5088754;28;20033;-64
2021/04/13 09:48:42;;;;;;;35.17;18.27;;;;;;;;;;5093304;28;20070;-67
2021/04/13 09:51:14;;;;;;;26.92;17.58;;;;;;;;;;5090113;28;20024;-63
2021/04/13 09:53:44;;;;;;;29.70;17.23;;;;;;;;;;5082144;28;20554;-67
2021/04/13 09:56:19;;;;;;;28.85;18.33;;;;;;;;;;5070582;28;20044;-64
2021/04/13 09:58:51;;;;;;;35.22;21.85;;;;;;;;;;5070589;28;20040;-64
2021/04/13 10:01:44;;;;;;;35.38;19.60;;;;;;;;;;5065709;28;20021;-66
2021/04/13 10:04:12;;;;;;;37.75;21.48;;;;;;;;;;5063279;28;20083;-67
2021/04/13 10:06:41;;;;;;;35.25;21.55;;;;;;;;;;5066250;28;20049;-64
2021/04/13 10:09:13;;;;;;;31.02;20.50;;;;;;;;;;5066497;28;20387;-66
2021/04/13 10:11:59;;;;;;;33.20;21.48;;;;;;;;;;5063801;28;20043;-64
2021/04/13 10:14:37;;;;;;;31.90;20.33;;;;;;;;;;5078712;28;20090;-62
2021/04/13 10:17:07;;;;;;;33.25;20.13;;;;;;;;;;5059741;28;20165;-67
2021/04/13 10:19:42;;;;;;;33.25;19.60;;;;;;;;;;5067829;28;20044;-67
2021/04/13 10:22:17;;;;;;;31.58;17.80;;;;;;;;;;5051455;28;20724;-67
2021/04/13 10:24:49;;;;;;;29.20;16.77;;;;;;;;;;5053225;28;20039;-66
2021/04/13 10:27:34;;;;;;;25.33;16.08;;;;;;;;;;5068223;28;20713;-66
2021/04/13 10:30:19;;;;;;;25.83;15.57;;;;;;;;;;5051722;28;20063;-67
2021/04/13 10:33:00;;;;;;;21.17;14.50;;;;;;;;;;5051536;28;20025;-65
2021/04/13 10:35:45;;;;;;;23.13;14.18;;;;;;;;;;5052749;28;20025;-64
2021/04/13 10:38:14;;;;;;;24.75;16.27;;;;;;;;;;5053125;28;20398;-67
2021/04/13 10:40:46;;;;;;;24.65;15.80;;;;;;;;;;5053862;28;20769;-67
2021/04/13 10:43:15;;;;;;;24.45;15.55;;;;;;;;;;5057023;28;20037;-66
2021/04/13 10:45:54;;;;;;;22.15;14.82;;;;;;;;;;5053744;28;20033;-64
2021/04/13 10:48:39;;;;;;;23.50;15.13;;;;;;;;;;5068210;28;20039;-64
2021/04/13 10:51:24;;;;;;;24.70;15.20;;;;;;;;;;5053596;28;20412;-67
2021/04/13 10:54:09;;;;;;;24.65;15.18;;;;;;;;;;5052365;28;20029;-65
2021/04/13 10:56:50;;;;;;;24.83;15.90;;;;;;;;;;5052027;28;20037;-65
2021/04/13 10:59:19;;;;;;;25.73;16.05;;;;;;;;;;5052017;28;20029;-66
2021/04/13 11:02:20;;;;;;;26.77;16.15;;;;;;;;;;5052459;28;20033;-67
2021/04/13 11:04:49;;;;;;;24.98;15.52;;;;;;;;;;5010149;28;20041;-66
2021/04/13 11:07:21;;;;;;;28.60;17.52;;;;;;;;;;5010666;28;20048;-67
2021/04/13 11:10:05;;;;;;;23.17;15.10;;;;;;;;;;5004220;28;20030;-68
2021/04/13 11:12:46;;;;;;;28.83;16.33;;;;;;;;;;4982529;28;20030;-68
2021/04/13 11:15:26;;;;;;;29.73;17.55;;;;;;;;;;5002509;28;20084;-65
2021/04/13 11:18:10;;;;;;;36.72;19.92;;;;;;;;;;5002593;28;20243;-64
2021/04/13 11:21:07;;;;;;;35.17;20.17;;;;;;;;;;5002204;28;20021;-68
2021/04/13 11:23:34;;;;;;;31.08;19.30;;;;;;;;;;4989909;28;20093;-71
2021/04/13 11:26:19;;;;;;;29.33;18.92;;;;;;;;;;4990432;28;20096;-67
2021/04/13 11:28:45;;;;;;;26.42;20.17;;;;;;;;;;4989472;28;20114;-68
2021/04/13 11:31:31;;;;;;;35.20;22.48;;;;;;;;;;4990787;28;20034;-66
2021/04/13 11:34:00;;;;;;;38.25;23.45;;;;;;;;;;4988499;28;20173;-65
2021/04/13 11:36:45;;;;;;;35.33;23.50;;;;;;;;;;4990213;28;20584;-66
2021/04/13 11:39:17;;;;;;;35.75;23.58;;;;;;;;;;5003988;28;20051;-66
2021/04/13 11:41:55;;;;;;;39.88;23.60;;;;;;;;;;5020850;28;20038;-67
2021/04/13 11:44:53;;;;;;;36.60;24.33;;;;;;;;;;5040421;28;20029;-68
2021/04/13 11:47:22;;;;;;;39.42;25.58;;;;;;;;;;4928959;29;20048;-67
2021/04/13 11:49:58;;;;;;;36.50;23.58;;;;;;;;;;4929840;29;20047;-65
2021/04/13 11:52:34;;;;;;;36.33;23.63;;;;;;;;;;4930285;29;20607;-68
2021/04/13 11:55:00;;;;;;;35.42;22.90;;;;;;;;;;4930758;29;21545;-71
2021/04/13 11:57:34;;;;;;;35.33;23.33;;;;;;;;;;4930745;29;20581;-67
2021/04/13 12:00:19;;;;;;;35.92;23.30;;;;;;;;;;4926889;29;20055;-65
2021/04/13 12:02:46;;;;;;;39.15;24.38;;;;;;;;;;4923640;29;20051;-67
2021/04/13 12:05:49;;;;;;;34.55;23.05;;;;;;;;;;4922842;29;20056;-70
2021/04/13 12:08:34;;;;;;;36.88;23.67;;;;;;;;;;4911778;29;20028;-68
2021/04/13 12:11:02;;;;;;;43.03;24.05;;;;;;;;;;4911810;29;20662;-68
2021/04/13 12:13:36;;;;;;;35.90;24.25;;;;;;;;;;4912376;29;20036;-66
2021/04/13 12:16:02;;;;;;;37.92;25.27;;;;;;;;;;4912273;29;20052;-68
2021/04/13 12:18:34;;;;;;;35.70;22.35;;;;;;;;;;4912467;29;20035;-65
2021/04/13 12:21:24;;;;;;;39.88;25.38;;;;;;;;;;4912771;29;20060;-65
2021/04/13 12:23:52;;;;;;;40.55;24.50;;;;;;;;;;4970366;28;20034;-68
2021/04/13 12:26:48;;;;;;;37.38;24.10;;;;;;;;;;4979184;28;20053;-67
2021/04/13 12:29:22;;;;;;;38.17;22.52;;;;;;;;;;4913730;29;20035;-68
2021/04/13 12:32:07;;;;;;;36.17;23.08;;;;;;;;;;4922617;29;20050;-65
2021/04/13 12:34:57;;;;;;;32.42;20.45;;;;;;;;;;4921966;29;20607;-66
2021/04/13 12:37:34;;;;;;;31.15;20.85;;;;;;;;;;4923350;29;20028;-66
2021/04/13 12:40:02;;;;;;;30.23;20.75;;;;;;;;;;4920031;29;20051;-67
2021/04/13 12:42:31;;;;;;;32.97;20.67;;;;;;;;;;4938646;28;20038;-69
2021/04/13 12:45:15;;;;;;;35.20;20.80;;;;;;;;;;4979960;28;20525;-64
2021/04/13 12:47:43;;;;;;;29.52;20.38;;;;;;;;;;4979162;28;20037;-66
2021/04/13 12:50:24;;;;;;;31.30;20.60;;;;;;;;;;4962641;28;20122;-65
2021/04/13 12:52:50;;;;;;;29.55;20.80;;;;;;;;;;4976659;28;20093;-67
2021/04/13 12:55:17;;;;;;;31.60;21.30;;;;;;;;;;4977897;28;20042;-64
2021/04/13 12:57:57;;;;;;;31.35;21.50;;;;;;;;;;4988780;28;20405;-67
2021/04/13 13:00:24;;;;;;;28.70;19.95;;;;;;;;;;4974468;28;20042;-67
2021/04/13 13:02:51;;;;;;;27.45;19.92;;;;;;;;;;4953481;28;20108;-66
2021/04/13 13:05:22;;;;;;;27.45;20.13;;;;;;;;;;4991282;28;20041;-66
2021/04/13 13:08:06;;;;;;;30.63;20.55;;;;;;;;;;5030697;28;20499;-65
2021/04/13 13:10:34;;;;;;;31.95;20.85;;;;;;;;;;5029632;28;20034;-65
2021/04/13 13:13:07;;;;;;;32.17;21.90;;;;;;;;;;5030113;28;20033;-66
2021/04/13 13:15:34;;;;;;;27.63;20.70;;;;;;;;;;5029960;28;20398;-66
2021/04/13 13:18:14;;;;;;;28.63;20.45;;;;;;;;;;5029393;28;20025;-64
2021/04/13 13:20:40;;;;;;;26.55;19.92;;;;;;;;;;5030359;28;20033;-67
2021/04/13 13:23:06;;;;;;;24.92;19.35;;;;;;;;;;5029418;28;20213;-65
2021/04/13 13:25:35;;;;;;;27.55;19.30;;;;;;;;;;5033897;28;20094;-66
2021/04/13 13:28:12;;;;;;;27.42;19.80;;;;;;;;;;5049238;28;20032;-66
2021/04/13 13:30:38;;;;;;;26.90;18.65;;;;;;;;;;5052915;28;20027;-68
2021/04/13 13:33:04;;;;;;;30.73;19.60;;;;;;;;;;5056690;28;20042;-65
2021/04/13 13:35:30;;;;;;;24.17;17.80;;;;;;;;;;5051827;28;20032;-65
2021/04/13 13:37:58;;;;;;;21.73;17.73;;;;;;;;;;5060574;28;20110;-62
2021/04/13 13:40:35;;;;;;;22.15;17.17;;;;;;;;;;5054380;28;20033;-67
2021/04/13 13:43:05;;;;;;;23.42;17.35;;;;;;;;;;5059303;28;20027;-63
2021/04/13 13:45:44;;;;;;;21.77;17.13;;;;;;;;;;5058953;28;20060;-66
2021/04/13 13:48:29;;;;;;;20.17;16.65;;;;;;;;;;5056151;28;20074;-64
2021/04/13 13:51:12;;;;;;;24.48;18.17;;;;;;;;;;5061056;28;20013;-62
2021/04/13 13:53:45;;;;;;;23.73;17.23;;;;;;;;;;5059168;28;20078;-64
2021/04/13 13:56:24;;;;;;;20.30;15.85;;;;;;;;;;5061516;28;20021;-65
2021/04/13 13:58:50;;;;;;;18.13;14.73;;;;;;;;;;5056501;28;20503;-65
2021/04/13 14:05:38;;;;;;;22.67;15.05;;;;;;;;;;5105007;27;20381;-66
2021/04/13 14:08:15;;;;;;;21.38;14.98;;;;;;;;;;5107727;28;20031;-64
2021/04/13 14:10:42;;;;;;;23.55;16.58;;;;;;;;;;5107960;28;20028;-66
2021/04/13 14:13:17;;;;;;;20.85;15.63;;;;;;;;;;5108203;28;20023;-68
2021/04/13 14:15:45;;;;;;;22.17;15.75;;;;;;;;;;5108070;28;20101;-66
2021/04/13 14:18:31;;;;;;;21.90;16.35;;;;;;;;;;5100910;28;20031;-64
2021/04/13 14:20:58;;;;;;;22.95;16.20;;;;;;;;;;5077175;28;20495;-67
2021/04/13 14:23:28;;;;;;;23.70;16.88;;;;;;;;;;5065088;28;20028;-62
2021/04/13 14:25:54;;;;;;;20.80;14.98;;;;;;;;;;5069535;28;20107;-66
2021/04/13 14:28:27;;;;;;;20.00;14.60;;;;;;;;;;5068169;28;20032;-65
2021/04/13 14:30:54;;;;;;;20.83;14.57;;;;;;;;;;5067469;28;20033;-66
2021/04/13 14:33:21;;;;;;;23.30;15.85;;;;;;;;;;5067607;28;20499;-65
2021/04/13 14:35:47;;;;;;;18.30;14.73;;;;;;;;;;5066714;28;20511;-67
2021/04/13 14:38:18;;;;;;;18.70;14.52;;;;;;;;;;5066556;28;20130;-67
2021/04/13 14:40:44;;;;;;;20.23;14.70;;;;;;;;;;5082096;28;20419;-68
2021/04/13 14:43:10;;;;;;;20.27;14.98;;;;;;;;;;5066758;28;20017;-69
2021/04/13 14:45:37;;;;;;;20.52;15.20;;;;;;;;;;5066793;28;20453;-66
2021/04/13 14:48:06;;;;;;;20.08;14.82;;;;;;;;;;5066876;28;20021;-67
2021/04/13 14:50:33;;;;;;;21.88;15.43;;;;;;;;;;5066660;28;20028;-67
2021/04/13 14:52:59;;;;;;;20.83;14.95;;;;;;;;;;5065945;28;20376;-64
2021/04/13 14:55:26;;;;;;;21.23;14.27;;;;;;;;;;5066519;28;20027;-66
2021/04/13 14:57:54;;;;;;;19.83;14.50;;;;;;;;;;5066215;28;20028;-65
2021/04/13 15:00:21;;;;;;;20.52;14.13;;;;;;;;;;5066250;28;20025;-65
2021/04/13 15:02:48;;;;;;;17.48;12.60;;;;;;;;;;5066025;28;20031;-68
2021/04/13 15:05:14;;;;;;;17.70;11.98;;;;;;;;;;5066039;28;20069;-68
2021/04/13 15:07:40;;;;;;;16.92;10.80;;;;;;;;;;5065824;28;20027;-68
2021/04/13 15:10:11;;;;;;;14.52;10.57;;;;;;;;;;5066181;28;20041;-64
2021/04/13 15:12:37;;;;;;;13.05;10.18;;;;;;;;;;5067833;28;20108;-66
2021/04/13 15:15:04;;;;;;;16.17;10.65;;;;;;;;;;5062731;28;20014;-66
2021/04/13 15:17:30;;;;;;;16.05;11.52;;;;;;;;;;5053451;28;20029;-63
2021/04/13 15:19:57;;;;;;;14.50;9.90;;;;;;;;;;5054002;28;20025;-64
2021/04/13 15:22:25;;;;;;;13.13;9.73;;;;;;;;;;5051719;28;20380;-63
2021/04/13 15:24:52;;;;;;;11.48;9.10;;;;;;;;;;5051634;28;20090;-66
2021/04/13 15:27:19;;;;;;;12.93;9.18;;;;;;;;;;5053821;28;20021;-65
2021/04/13 15:29:45;;;;;;;13.55;8.93;;;;;;;;;;5068871;28;20032;-65
2021/04/13 15:32:12;;;;;;;12.23;8.98;;;;;;;;;;5071053;28;20055;-66
2021/04/13 15:34:45;;;;;;;13.05;9.10;;;;;;;;;;5070578;28;20032;-64
2021/04/13 15:37:17;;;;;;;11.27;8.02;;;;;;;;;;5070664;28;20480;-64
2021/04/13 15:39:43;;;;;;;11.40;7.88;;;;;;;;;;5071106;28;20025;-65
2021/04/13 15:42:14;;;;;;;9.55;7.40;;;;;;;;;;5071465;28;20186;-66
2021/04/13 15:44:48;;;;;;;11.65;7.63;;;;;;;;;;5068461;28;20108;-67
2021/04/13 15:47:15;;;;;;;11.18;8.10;;;;;;;;;;5071910;28;20364;-63
2021/04/13 15:49:42;;;;;;;13.45;8.93;;;;;;;;;;5070947;28;20031;-67
2021/04/13 15:52:11;;;;;;;11.73;8.15;;;;;;;;;;5066360;28;20343;-66
2021/04/13 15:54:42;;;;;;;12.30;8.57;;;;;;;;;;5072471;28;20035;-66
2021/04/13 15:57:08;;;;;;;12.45;8.13;;;;;;;;;;5069795;28;20398;-69
2021/04/13 15:59:35;;;;;;;12.80;7.97;;;;;;;;;;5070017;28;20024;-66
2021/04/13 16:02:03;;;;;;;13.60;7.95;;;;;;;;;;5070403;28;20021;-65
2021/04/13 16:04:29;;;;;;;11.88;8.48;;;;;;;;;;5072533;28;20056;-65
2021/04/13 16:06:55;;;;;;;12.63;8.20;;;;;;;;;;5070077;28;20364;-67
2021/04/13 16:09:22;;;;;;;9.65;6.93;;;;;;;;;;5067799;28;20059;-65
2021/04/13 16:11:49;;;;;;;11.85;8.27;;;;;;;;;;5071784;28;20029;-67
2021/04/13 16:14:15;;;;;;;12.65;7.95;;;;;;;;;;5070984;28;20039;-65
2021/04/13 16:16:43;;;;;;;10.98;8.40;;;;;;;;;;5070979;28;20024;-67
2021/04/13 16:19:10;;;;;;;13.43;9.43;;;;;;;;;;5069326;28;20024;-68
2021/04/13 16:21:36;;;;;;;13.35;8.43;;;;;;;;;;5071281;28;20416;-65
2021/04/13 16:24:02;;;;;;;13.85;9.02;;;;;;;;;;5068995;28;20040;-64
2021/04/13 16:26:37;;;;;;;13.20;9.15;;;;;;;;;;5070170;28;20053;-65
2021/04/13 16:29:03;;;;;;;14.23;9.68;;;;;;;;;;5067315;28;20081;-66
2021/04/13 16:31:36;;;;;;;16.45;11.48;;;;;;;;;;5070374;28;20028;-68
2021/04/13 16:34:13;;;;;;;15.65;10.80;;;;;;;;;;5070184;28;20029;-67
2021/04/13 16:36:41;;;;;;;14.63;10.27;;;;;;;;;;5067755;28;20029;-66
2021/04/13 16:39:30;;;;;;;18.17;10.65;;;;;;;;;;5068971;28;20024;-64
2021/04/13 16:41:59;;;;;;;14.07;10.07;;;;;;;;;;4998121;28;20044;-64
2021/04/13 16:44:26;;;;;;;13.73;10.40;;;;;;;;;;4999063;28;20077;-67
2021/04/13 16:46:58;;;;;;;15.68;9.18;;;;;;;;;;5008810;28;20091;-66
2021/04/13 16:49:25;;;;;;;14.05;10.05;;;;;;;;;;4981761;28;20073;-68
2021/04/13 16:51:53;;;;;;;14.38;10.88;;;;;;;;;;4987934;28;20057;-69
2021/04/13 16:54:19;;;;;;;14.63;10.40;;;;;;;;;;4998641;28;20026;-67
2021/04/13 16:56:49;;;;;;;14.40;9.95;;;;;;;;;;4999375;28;20521;-68
2021/04/13 16:59:21;;;;;;;11.65;9.45;;;;;;;;;;4981350;28;20090;-64
2021/04/13 17:01:53;;;;;;;14.55;9.00;;;;;;;;;;4995431;28;20038;-65
2021/04/13 17:04:25;;;;;;;13.60;10.05;;;;;;;;;;5003832;28;20060;-68
2021/04/13 17:06:56;;;;;;;11.07;8.25;;;;;;;;;;5006820;28;20042;-63
2021/04/13 17:09:27;;;;;;;13.45;10.02;;;;;;;;;;5008454;28;20030;-68
2021/04/13 17:12:00;;;;;;;14.10;9.50;;;;;;;;;;5008396;28;20117;-67
2021/04/13 17:14:26;;;;;;;;;;;;;;;;;;5008090;28;20065;-66
2021/04/13 17:16:55;;;;;;;10.95;8.05;;;;;;;;;;5008102;28;20452;-69
2021/04/13 17:19:23;;;;;;;11.38;7.38;;;;;;;;;;5036137;28;20045;-66
2021/04/13 17:22:00;;;;;;;8.63;6.75;;;;;;;;;;5049581;28;20477;-67
2021/04/13 17:24:32;;;;;;;9.05;6.55;;;;;;;;;;5050179;28;20041;-66
2021/04/13 17:26:59;;;;;;;9.13;6.57;;;;;;;;;;5049469;28;20370;-67
2021/04/13 17:29:29;;;;;;;7.70;5.50;;;;;;;;;;5050084;28;20033;-68
2021/04/13 17:31:56;;;;;;;7.70;5.25;;;;;;;;;;5048812;28;20111;-68
2021/04/13 17:34:22;;;;;;;11.10;5.10;;;;;;;;;;5055229;28;20029;-70
2021/04/13 17:36:51;;;;;;;10.38;5.20;;;;;;;;;;5050340;28;20017;-68
2021/04/13 17:39:31;;;;;;;7.38;4.57;;;;;;;;;;5049634;28;20036;-67
2021/04/13 17:42:16;;;;;;;15.13;6.00;;;;;;;;;;5055186;28;20027;-67
2021/04/13 17:44:44;;;;;;;8.52;5.38;;;;;;;;;;5064370;28;20068;-69
2021/04/13 17:47:12;;;;;;;13.95;5.88;;;;;;;;;;5068756;28;20024;-69
2021/04/13 17:49:41;;;;;;;11.90;6.07;;;;;;;;;;5065834;28;20506;-70
2021/04/13 17:52:07;;;;;;;17.10;6.60;;;;;;;;;;5064537;28;20082;-69
2021/04/13 17:54:34;;;;;;;19.63;6.97;;;;;;;;;;5067314;28;20047;-69
2021/04/13 17:57:03;;;;;;;11.50;7.85;;;;;;;;;;5064625;28;20535;-69
2021/04/13 17:59:29;;;;;;;14.05;6.95;;;;;;;;;;5069904;28;20033;-67
2021/04/13 18:01:56;;;;;;;20.00;7.35;;;;;;;;;;5070198;28;20107;-67
2021/04/13 18:04:31;;;;;;;9.13;6.07;;;;;;;;;;5068049;28;20056;-70
2021/04/13 18:07:06;;;;;;;15.98;6.32;;;;;;;;;;5066651;28;20472;-68
2021/04/13 18:09:40;;;;;;;8.77;6.20;;;;;;;;;;5068088;28;20036;-73
2021/04/13 18:12:13;;;;;;;7.78;6.15;;;;;;;;;;5066114;28;20039;-69
2021/04/13 18:14:50;;;;;;;8.63;6.05;;;;;;;;;;5066236;28;20020;-65
2021/04/13 18:17:19;;;;;;;10.73;6.72;;;;;;;;;;5059592;28;20135;-70
2021/04/13 18:19:50;;;;;;;10.13;7.20;;;;;;;;;;5067179;28;20020;-72
2021/04/13 18:22:17;;;;;;;10.88;7.05;;;;;;;;;;5067872;28;20033;-75
2021/04/13 18:24:43;;;;;;;9.95;7.65;;;;;;;;;;5059442;28;20044;-65
2021/04/13 18:27:28;;;;;;;8.35;6.70;;;;;;;;;;5068963;28;20111;-69
2021/04/13 18:29:55;;;;;;;11.23;6.55;;;;;;;;;;5069202;28;20025;-68
2021/04/13 18:32:31;;;;;;;12.40;6.63;;;;;;;;;;5066596;28;20028;-73
2021/04/13 18:35:01;;;;;;;9.80;5.10;;;;;;;;;;5175439;22;20064;-61
2021/04/13 18:37:32;;;;;;;12.77;4.82;;;;;;;;;;5052722;28;20205;-63
2021/04/13 18:40:02;;;;;;;11.73;5.00;;;;;;;;;;5057840;28;20045;-61
2021/04/13 18:42:32;;;;;;;9.27;5.50;;;;;;;;;;5043523;28;20443;-63
2021/04/13 18:45:20;;;;;;;6.35;4.70;;;;;;;;;;5035130;28;20037;-63
2021/04/13 18:48:02;;;;;;;11.27;4.97;;;;;;;;;;5056193;28;20103;-69
2021/04/13 18:50:30;;;;;;;8.75;6.13;;;;;;;;;;5063484;28;20024;-69
2021/04/13 18:52:59;;;;;;;9.48;6.47;;;;;;;;;;5071360;28;20489;-71
2021/04/13 18:55:29;;;;;;;9.05;5.78;;;;;;;;;;5044655;28;20048;-70
2021/04/13 18:57:56;;;;;;;8.55;5.45;;;;;;;;;;5053976;28;20060;-62
2021/04/13 19:00:25;;;;;;;9.65;5.45;;;;;;;;;;5053155;28;20177;-69
2021/04/13 19:03:07;;;;;;;7.88;5.97;;;;;;;;;;5053258;28;20538;-69
2021/04/13 19:05:36;;;;;;;8.75;6.10;;;;;;;;;;5033319;28;20047;-68
2021/04/13 19:08:15;;;;;;;9.73;7.30;;;;;;;;;;5053418;28;20060;-69
2021/04/13 19:10:53;;;;;;;8.73;5.65;;;;;;;;;;5053001;28;20051;-69
2021/04/13 19:13:25;;;;;;;8.35;5.57;;;;;;;;;;5034579;28;20484;-71
2021/04/13 19:15:53;;;;;;;8.00;4.55;;;;;;;;;;5034961;28;20036;-70
2021/04/13 19:18:33;;;;;;;6.93;5.22;;;;;;;;;;5053575;28;20035;-71
2021/04/13 19:21:03;;;;;;;6.50;3.75;;;;;;;;;;5052230;28;20117;-67
2021/04/13 19:23:33;;;;;;;5.97;3.85;;;;;;;;;;5050900;28;20421;-70
2021/04/13 19:25:59;;;;;;;9.25;4.15;;;;;;;;;;5052967;28;20491;-69
2021/04/13 19:28:32;;;;;;;7.07;4.55;;;;;;;;;;5051850;28;20041;-66
2021/04/13 19:31:02;;;;;;;5.28;4.07;;;;;;;;;;5034880;28;20425;-63
2021/04/13 19:33:30;;;;;;;7.10;4.90;;;;;;;;;;5052113;28;20604;-66
2021/04/13 19:36:17;;;;;;;7.15;5.70;;;;;;;;;;5052579;28;20041;-67
2021/04/13 19:39:01;;;;;;;8.75;5.40;;;;;;;;;;5053073;28;20028;-69
2021/04/13 19:41:30;;;;;;;8.60;5.45;;;;;;;;;;5053381;28;20021;-69
2021/04/13 19:44:02;;;;;;;6.63;5.80;;;;;;;;;;5033712;28;20037;-69
2021/04/13 19:46:32;;;;;;;7.35;5.43;;;;;;;;;;5052034;28;20032;-70
2021/04/13 19:49:11;;;;;;;7.30;5.20;;;;;;;;;;5040733;28;20054;-67
2021/04/13 19:51:39;;;;;;;12.27;7.13;;;;;;;;;;5051925;28;20142;-68
2021/04/13 19:54:17;;;;;;;5.63;4.32;;;;;;;;;;5052903;28;20033;-71
2021/04/13 19:56:46;;;;;;;7.00;5.10;;;;;;;;;;5036235;28;20025;-70
2021/04/13 19:59:14;;;;;;;9.13;4.72;;;;;;;;;;5052225;28;20048;-69
2021/04/13 20:01:41;;;;;;;7.65;5.18;;;;;;;;;;5051784;28;20029;-70
2021/04/13 20:04:09;;;;;;;6.97;4.45;;;;;;;;;;5059506;28;20029;-70
2021/04/13 20:06:36;;;;;;;6.75;4.80;;;;;;;;;;5051759;28;20479;-70
2021/04/13 20:09:06;;;;;;;8.32;4.88;;;;;;;;;;5051843;28;20013;-63
2021/04/13 20:11:38;;;;;;;7.78;5.75;;;;;;;;;;5038328;28;20029;-65
2021/04/13 20:14:22;;;;;;;8.18;5.05;;;;;;;;;;5052115;28;20064;-72
2021/04/13 20:17:07;;;;;;;9.70;5.63;;;;;;;;;;5052312;28;20559;-67
2021/04/13 20:19:34;;;;;;;5.38;4.22;;;;;;;;;;5034405;28;20112;-63
2021/04/13 20:22:05;;;;;;;6.55;4.93;;;;;;;;;;5051849;28;20040;-69
2021/04/13 20:24:40;;;;;;;6.78;5.35;;;;;;;;;;5051995;28;20044;-65
2021/04/13 20:27:12;;;;;;;8.68;4.85;;;;;;;;;;5051513;28;20387;-69
2021/04/13 20:29:42;;;;;;;5.95;4.88;;;;;;;;;;5062189;28;20698;-69
2021/04/13 20:32:23;;;;;;;7.47;5.38;;;;;;;;;;5057546;28;20025;-68
2021/04/13 20:40:41;;;;;;;6.80;5.50;;;;;;;;;;5052046;28;20490;-65
2021/04/13 20:43:18;;;;;;;7.05;5.75;;;;;;;;;;5052178;28;20518;-68
2021/04/13 20:45:46;;;;;;;7.22;5.60;;;;;;;;;;5052846;28;20548;-67
2021/04/13 20:48:15;;;;;;;7.30;6.20;;;;;;;;;;5053088;28;20024;-71
2021/04/13 20:50:45;;;;;;;9.30;6.50;;;;;;;;;;5051055;28;20029;-67
2021/04/13 20:53:19;;;;;;;7.18;5.97;;;;;;;;;;5033057;28;20017;-64
2021/04/13 20:55:47;;;;;;;9.30;6.20;;;;;;;;;;5032814;28;20057;-67
2021/04/13 20:58:25;;;;;;;7.78;6.00;;;;;;;;;;5032420;28;20315;-66
2021/04/13 21:01:04;;;;;;;6.50;5.35;;;;;;;;;;5033915;28;20021;-68
2021/04/13 21:03:36;;;;;;;6.70;5.03;;;;;;;;;;5031957;28;20044;-67
2021/04/13 21:06:15;;;;;;;7.68;5.30;;;;;;;;;;5051727;28;20029;-60
2021/04/13 21:08:47;;;;;;;5.90;4.75;;;;;;;;;;5052142;28;20025;-62
2021/04/13 21:11:19;;;;;;;5.68;4.60;;;;;;;;;;5051918;28;20040;-61
2021/04/13 21:13:47;;;;;;;8.25;4.82;;;;;;;;;;5051134;28;20401;-68
2021/04/13 21:16:14;;;;;;;5.40;4.70;;;;;;;;;;5053170;28;20048;-69
2021/04/13 21:18:42;;;;;;;6.50;5.03;;;;;;;;;;5051388;28;20021;-70
2021/04/13 21:21:11;;;;;;;6.47;5.10;;;;;;;;;;5052546;28;20104;-66
2021/04/13 21:23:41;;;;;;;6.55;5.00;;;;;;;;;;5052850;28;20056;-67
2021/04/13 21:26:09;;;;;;;5.68;4.90;;;;;;;;;;5051605;28;20029;-65
2021/04/13 21:28:38;;;;;;;8.70;5.00;;;;;;;;;;5050858;28;20021;-67